createdAt,value
2022-08-03T00:01:50.542Z,4.00
2022-08-03T00:04:17.285Z,3.90
2022-08-03T00:06:43.680Z,3.70
2022-08-03T00:09:10.942Z,3.53
2022-08-03T00:11:37.602Z,3.20
2022-08-03T00:14:05.694Z,3.37
2022-08-03T00:16:32.296Z,4.17
2022-08-03T00:18:58.678Z,3.70
2022-08-03T00:21:27.338Z,3.93
2022-08-03T00:23:53.666Z,3.70
2022-08-03T00:26:21.254Z,3.50
2022-08-03T00:28:48.450Z,3.60
2022-08-03T00:31:14.812Z,3.47
2022-08-03T00:33:59.388Z,3.90
2022-08-03T00:36:26.391Z,3.73
2022-08-03T00:38:52.728Z,3.50
2022-08-03T00:41:19.202Z,3.80
2022-08-03T00:43:47.306Z,3.53
2022-08-03T00:46:16.447Z,3.63
2022-08-03T00:48:47.228Z,4.10
2022-08-03T00:51:13.883Z,3.87
2022-08-03T00:53:40.224Z,3.63
2022-08-03T00:56:06.784Z,4.07
2022-08-03T00:58:33.236Z,3.83
2022-08-03T01:00:59.744Z,3.77
2022-08-03T01:03:26.420Z,3.57
2022-08-03T01:06:15.188Z,3.60
2022-08-03T01:08:52.287Z,3.20
2022-08-03T01:11:36.691Z,3.60
2022-08-03T01:14:49.153Z,3.50
2022-08-03T01:17:25.533Z,4.13
2022-08-03T01:20:02.547Z,3.50
2022-08-03T01:22:44.853Z,3.10
2022-08-03T01:25:28.367Z,3.90
2022-08-03T01:28:17.549Z,3.33
2022-08-03T01:30:46.014Z,3.53
2022-08-03T01:33:19.133Z,3.67
2022-08-03T01:35:50.663Z,3.70
2022-08-03T01:38:24.326Z,3.50
2022-08-03T01:40:54.587Z,3.43
2022-08-03T01:43:59.078Z,3.13
2022-08-03T01:46:15.604Z,3.80
2022-08-03T01:48:44.733Z,3.57
2022-08-03T01:51:12.132Z,4.00
2022-08-03T01:53:42.719Z,3.90
2022-08-03T01:56:10.877Z,3.83
2022-08-03T01:58:39.665Z,4.10
2022-08-03T02:01:09.219Z,3.50
2022-08-03T02:03:38.401Z,4.00
2022-08-03T02:07:02.103Z,3.53
2022-08-03T02:09:14.724Z,3.37
2022-08-03T02:11:42.559Z,3.50
2022-08-03T02:14:10.350Z,3.70
2022-08-03T02:16:37.120Z,4.00
2022-08-03T02:19:06.350Z,3.00
2022-08-03T02:21:56.912Z,4.53
2022-08-03T02:24:22.074Z,3.63
2022-08-03T02:26:50.531Z,3.70
2022-08-03T02:29:21.677Z,3.37
2022-08-03T02:32:09.811Z,3.50
2022-08-03T02:34:36.819Z,4.40
2022-08-03T02:37:04.411Z,3.90
2022-08-03T02:39:35.500Z,3.90
2022-08-03T02:42:05.438Z,3.50
2022-08-03T02:44:35.545Z,3.57
2022-08-03T02:47:09.498Z,3.63
2022-08-03T02:49:49.891Z,3.50
2022-08-03T02:52:19.437Z,4.20
2022-08-03T02:54:47.677Z,4.00
2022-08-03T02:57:16.255Z,3.70
2022-08-03T02:59:44.443Z,4.23
2022-08-03T03:02:12.156Z,3.60
2022-08-03T03:04:38.962Z,3.80
2022-08-03T03:07:22.870Z,3.40
2022-08-03T03:09:49.991Z,3.57
2022-08-03T03:12:18.103Z,3.90
2022-08-03T03:14:44.619Z,3.57
2022-08-03T03:17:12.031Z,3.97
2022-08-03T03:19:40.707Z,4.40
2022-08-03T03:22:08.931Z,3.37
2022-08-03T03:24:36.978Z,4.03
2022-08-03T03:27:03.926Z,4.63
2022-08-03T03:29:31.909Z,4.03
2022-08-03T03:32:08.451Z,4.10
2022-08-03T03:34:37.160Z,3.70
2022-08-03T03:37:03.726Z,3.50
2022-08-03T03:39:30.278Z,3.47
2022-08-03T03:41:57.338Z,4.47
2022-08-03T03:44:28.814Z,4.37
2022-08-03T03:46:57.402Z,3.50
2022-08-03T03:49:23.950Z,4.93
2022-08-03T03:51:53.876Z,3.83
2022-08-03T03:54:20.350Z,3.67
2022-08-03T03:56:47.562Z,4.30
2022-08-03T03:59:14.092Z,4.63
2022-08-03T04:01:40.605Z,3.97
2022-08-03T04:04:25.382Z,3.83
2022-08-03T04:07:10.147Z,4.63
2022-08-03T04:09:59.206Z,3.87
2022-08-03T04:12:36.796Z,3.67
2022-08-03T04:15:04.449Z,3.63
2022-08-03T04:17:32.340Z,4.17
2022-08-03T04:20:02.417Z,4.20
2022-08-03T04:22:32.512Z,4.47
2022-08-03T04:25:02.734Z,3.87
2022-08-03T04:27:34.686Z,4.17
2022-08-03T04:30:04.581Z,4.30
2022-08-03T04:32:31.793Z,3.43
2022-08-03T04:34:58.344Z,4.53
2022-08-03T04:37:35.256Z,4.33
2022-08-03T04:40:05.766Z,4.30
2022-08-03T04:42:33.794Z,5.50
2022-08-03T04:45:02.624Z,4.63
2022-08-03T04:47:32.797Z,4.53
2022-08-03T04:50:01.582Z,4.30
2022-08-03T04:52:28.055Z,4.90
2022-08-03T04:54:54.379Z,4.43
2022-08-03T04:57:22.435Z,4.20
2022-08-03T05:00:01.991Z,3.77
2022-08-03T05:02:29.089Z,4.60
2022-08-03T05:04:55.403Z,4.23
2022-08-03T05:07:24.976Z,4.53
2022-08-03T05:09:52.784Z,4.40
2022-08-03T05:12:19.486Z,3.97
2022-08-03T05:14:45.824Z,4.40
2022-08-03T05:17:12.154Z,5.13
2022-08-03T05:19:38.483Z,4.70
2022-08-03T05:22:04.820Z,4.40
2022-08-03T05:24:31.216Z,4.77
2022-08-03T05:26:57.550Z,4.60
2022-08-03T05:29:23.906Z,4.53
2022-08-03T05:31:50.227Z,4.33
2022-08-03T05:34:16.569Z,4.30
2022-08-03T05:36:42.895Z,4.50
2022-08-03T05:39:09.224Z,4.77
2022-08-03T05:41:35.551Z,4.23
2022-08-03T05:44:04.294Z,4.60
2022-08-03T05:46:30.627Z,5.20
2022-08-03T05:48:56.998Z,4.60
2022-08-03T05:51:23.500Z,6.03
2022-08-03T05:53:49.843Z,5.37
2022-08-03T05:56:16.913Z,5.13
2022-08-03T05:58:47.736Z,4.47
2022-08-03T06:01:15.637Z,4.60
2022-08-03T06:03:42.114Z,4.40
2022-08-03T06:06:08.455Z,3.90
2022-08-03T06:08:35.268Z,4.20
2022-08-03T06:11:01.617Z,4.13
2022-08-03T06:13:28.044Z,5.83
2022-08-03T06:15:54.379Z,4.23
2022-08-03T06:18:20.828Z,4.63
2022-08-03T06:20:49.363Z,4.50
2022-08-03T06:23:18.037Z,4.93
2022-08-03T06:25:45.813Z,4.77
2022-08-03T06:28:53.329Z,5.00
2022-08-03T06:31:06.600Z,4.60
2022-08-03T06:34:30.988Z,5.10
2022-08-03T06:36:19.582Z,4.50
2022-08-03T06:38:46.079Z,4.67
2022-08-03T06:41:12.431Z,4.70
2022-08-03T06:44:03.065Z,5.30
2022-08-03T06:46:25.998Z,4.23
2022-08-03T06:48:52.945Z,5.50
2022-08-03T06:51:19.346Z,4.70
2022-08-03T06:53:45.688Z,4.40
2022-08-03T06:56:12.102Z,6.10
2022-08-03T06:58:38.421Z,4.97
2022-08-03T07:01:04.827Z,4.87
2022-08-03T07:03:31.226Z,5.47
2022-08-03T07:05:57.616Z,5.30
2022-08-03T07:08:33.974Z,4.77
2022-08-03T07:11:01.217Z,5.30
2022-08-03T07:13:27.587Z,5.30
2022-08-03T07:15:56.107Z,5.70
2022-08-03T07:18:27.661Z,5.67
2022-08-03T07:20:57.323Z,4.90
2022-08-03T07:23:23.819Z,4.90
2022-08-03T07:25:50.737Z,4.53
2022-08-03T07:28:17.139Z,4.87
2022-08-03T07:30:43.476Z,5.07
2022-08-03T07:33:09.845Z,4.87
2022-08-03T07:35:36.313Z,4.67
2022-08-03T07:38:02.843Z,4.80
2022-08-03T07:40:31.561Z,4.70
2022-08-03T07:42:58.962Z,5.07
2022-08-03T07:45:26.436Z,4.60
2022-08-03T07:47:55.432Z,4.40
2022-08-03T07:50:22.754Z,4.70
2022-08-03T07:52:50.807Z,5.30
2022-08-03T07:55:22.799Z,4.93
2022-08-03T07:58:16.505Z,4.77
2022-08-03T08:00:45.732Z,3.87
2022-08-03T08:03:13.147Z,4.20
2022-08-03T08:05:39.872Z,4.43
2022-08-03T08:08:06.768Z,4.60
2022-08-03T08:10:33.691Z,4.77
2022-08-03T08:13:00.115Z,5.60
2022-08-03T08:15:26.461Z,4.60
2022-08-03T08:17:55.897Z,5.43
2022-08-03T08:20:31.346Z,4.97
2022-08-03T08:23:03.566Z,4.23
2022-08-03T08:25:38.639Z,4.23
2022-08-03T08:28:29.190Z,4.23
2022-08-03T08:30:51.519Z,4.90
2022-08-03T08:33:23.467Z,4.10
2022-08-03T08:35:51.570Z,4.50
2022-08-03T08:38:17.927Z,4.27
2022-08-03T08:40:44.359Z,5.77
2022-08-03T08:43:10.743Z,5.30
2022-08-03T08:45:37.778Z,4.63
2022-08-03T08:48:08.347Z,4.17
2022-08-03T08:50:37.394Z,5.73
2022-08-03T08:53:06.984Z,4.80
2022-08-03T08:55:58.438Z,4.10
2022-08-03T08:58:25.026Z,4.20
2022-08-03T09:00:51.768Z,4.80
2022-08-03T09:03:22.654Z,4.70
2022-08-03T09:05:56.614Z,5.53
2022-08-03T09:08:23.212Z,4.27
2022-08-03T09:10:49.616Z,4.00
2022-08-03T09:13:18.287Z,3.70
2022-08-03T09:16:00.997Z,5.50
2022-08-03T09:18:32.544Z,4.57
2022-08-03T09:21:34.269Z,4.20
2022-08-03T09:24:05.178Z,4.70
2022-08-03T09:26:35.544Z,4.73
2022-08-03T09:29:14.535Z,4.47
2022-08-03T09:31:44.551Z,4.00
2022-08-03T09:34:13.436Z,3.90
2022-08-03T09:36:48.469Z,4.53
2022-08-03T09:39:41.822Z,3.90
2022-08-03T09:42:14.991Z,3.97
2022-08-03T09:44:48.478Z,4.50
2022-08-03T09:47:28.393Z,3.77
2022-08-03T09:50:06.335Z,4.17
2022-08-03T09:52:49.442Z,4.03
2022-08-03T09:56:30.765Z,4.00
2022-08-03T09:58:10.782Z,4.20
2022-08-03T10:01:06.363Z,4.10
2022-08-03T10:03:35.976Z,4.33
2022-08-03T10:06:29.153Z,4.50
2022-08-03T10:09:09.500Z,4.13
2022-08-03T10:11:41.208Z,4.60
2022-08-03T10:14:10.223Z,4.80
2022-08-03T10:16:38.960Z,4.63
2022-08-03T10:19:07.339Z,3.57
2022-08-03T10:21:39.148Z,3.70
2022-08-03T10:24:08.186Z,4.33
2022-08-03T10:26:49.799Z,3.60
2022-08-03T10:29:22.305Z,3.77
2022-08-03T10:31:57.553Z,3.50
2022-08-03T10:34:29.117Z,4.20
2022-08-03T10:36:58.747Z,3.90
2022-08-03T10:39:29.405Z,4.00
2022-08-03T10:41:58.685Z,3.83
2022-08-03T10:44:33.091Z,4.17
2022-08-03T10:46:59.850Z,4.20
2022-08-03T10:49:34.605Z,3.80
2022-08-03T10:52:02.728Z,3.80
2022-08-03T10:55:03.351Z,4.03
2022-08-03T10:57:42.127Z,4.10
2022-08-03T11:00:10.331Z,3.53
2022-08-03T11:03:03.842Z,3.60
2022-08-03T11:05:32.706Z,4.50
2022-08-03T11:08:22.403Z,3.70
2022-08-03T11:10:50.210Z,3.43
2022-08-03T11:13:22.208Z,3.67
2022-08-03T11:15:52.504Z,3.70
2022-08-03T11:18:19.600Z,3.20
2022-08-03T11:20:56.124Z,3.90
2022-08-03T11:24:04.020Z,3.80
2022-08-03T11:26:28.469Z,3.83
2022-08-03T11:29:28.673Z,3.90
2022-08-03T11:31:55.098Z,3.50
2022-08-03T11:34:21.468Z,4.47
2022-08-03T11:37:21.297Z,3.60
2022-08-03T11:39:50.506Z,3.47
2022-08-03T11:42:26.942Z,3.90
2022-08-03T11:44:58.260Z,3.53
2022-08-03T11:47:27.220Z,3.10
2022-08-03T11:50:01.883Z,3.80
2022-08-03T11:52:35.586Z,3.50
2022-08-03T11:55:02.249Z,3.80
2022-08-03T11:59:19.212Z,3.50
2022-08-03T12:00:32.933Z,3.00
2022-08-03T12:03:11.842Z,3.33
2022-08-03T12:05:51.698Z,3.20
2022-08-03T12:08:39.531Z,2.90
2022-08-03T12:11:08.518Z,2.80
2022-08-03T12:14:36.754Z,2.90
2022-08-03T12:16:33.448Z,3.00
2022-08-03T12:19:05.515Z,2.53
2022-08-03T12:21:32.455Z,2.30
2022-08-03T12:24:03.963Z,2.40
2022-08-03T12:26:42.682Z,2.80
2022-08-03T12:29:19.669Z,2.30
2022-08-03T12:31:46.252Z,2.47
2022-08-03T12:34:13.543Z,2.80
2022-08-03T12:36:51.226Z,2.73
2022-08-03T12:39:22.487Z,3.07
2022-08-03T12:41:53.992Z,2.77
2022-08-03T12:44:33.040Z,2.93
2022-08-03T12:47:00.706Z,2.73
2022-08-03T12:49:28.371Z,2.90
2022-08-03T12:51:54.719Z,3.03
2022-08-03T12:54:24.577Z,2.50
2022-08-03T12:57:04.652Z,3.40
2022-08-03T12:59:45.140Z,2.87
2022-08-03T13:02:23.551Z,3.03
2022-08-03T13:04:51.490Z,3.10
2022-08-03T13:07:19.542Z,5.60
2022-08-03T13:09:52.908Z,2.53
2022-08-03T13:12:21.494Z,3.13
2022-08-03T13:14:50.775Z,2.80
2022-08-03T13:17:18.024Z,3.03
2022-08-03T13:19:45.951Z,3.17
2022-08-03T13:22:22.683Z,5.63
2022-08-03T13:24:52.141Z,4.27
2022-08-03T13:28:01.661Z,2.90
2022-08-03T13:30:07.027Z,2.77
2022-08-03T13:32:33.557Z,2.77
2022-08-03T13:35:00.454Z,3.20
2022-08-03T13:37:27.335Z,3.63
2022-08-03T13:39:59.227Z,3.70
2022-08-03T13:42:31.922Z,3.07
2022-08-03T13:44:59.532Z,4.17
2022-08-03T13:47:26.870Z,3.20
2022-08-03T13:50:00.071Z,3.37
2022-08-03T13:52:37.649Z,3.30
2022-08-03T13:55:06.611Z,3.57
2022-08-03T13:58:02.242Z,3.07
2022-08-03T14:00:27.704Z,2.77
2022-08-03T14:03:01.902Z,2.73
2022-08-03T14:05:32.047Z,2.70
2022-08-03T14:08:04.744Z,2.83
2022-08-03T14:10:35.782Z,2.50
2022-08-03T14:13:02.610Z,2.43
2022-08-03T14:15:29.082Z,2.30
2022-08-03T14:17:56.417Z,2.20
2022-08-03T14:20:36.741Z,2.70
2022-08-03T14:23:12.755Z,2.20
2022-08-03T14:25:50.430Z,2.10
2022-08-03T14:28:22.144Z,2.10
2022-08-03T14:30:48.825Z,2.70
2022-08-03T14:33:15.549Z,2.37
2022-08-03T14:35:42.154Z,2.43
2022-08-03T14:38:08.489Z,3.00
2022-08-03T14:40:35.040Z,2.40
2022-08-03T14:43:02.401Z,2.60
2022-08-03T14:45:28.805Z,1.80
2022-08-03T14:50:34.712Z,2.10
2022-08-03T14:50:46.754Z,2.10
2022-08-03T14:53:17.484Z,2.17
2022-08-03T14:55:50.388Z,2.40
2022-08-03T14:58:21.256Z,1.50
2022-08-03T15:00:49.093Z,1.87
2022-08-03T15:03:17.293Z,1.67
2022-08-03T15:05:44.296Z,2.10
2022-08-03T15:08:10.820Z,1.90
2022-08-03T15:10:43.840Z,1.50
2022-08-03T15:13:11.196Z,1.70
2022-08-03T15:15:37.528Z,1.83
2022-08-03T15:18:04.010Z,2.03
2022-08-03T15:20:43.223Z,2.03
2022-08-03T15:23:11.656Z,2.40
2022-08-03T15:26:28.283Z,1.77
2022-08-03T15:28:24.480Z,2.10
2022-08-03T15:30:54.292Z,1.90
2022-08-03T15:33:21.037Z,2.33
2022-08-03T15:35:47.762Z,2.20
2022-08-03T15:38:14.277Z,2.30
2022-08-03T15:40:40.952Z,2.00
2022-08-03T15:43:07.433Z,1.70
2022-08-03T15:45:35.432Z,1.50
2022-08-03T15:48:04.143Z,2.03
2022-08-03T15:50:30.588Z,1.93
2022-08-03T15:52:57.039Z,1.87
2022-08-03T15:55:23.406Z,1.83
2022-08-03T15:59:09.397Z,1.90
2022-08-03T16:00:36.183Z,2.20
2022-08-03T16:03:02.551Z,1.90
2022-08-03T16:05:29.452Z,1.80
2022-08-03T16:08:02.842Z,2.13
2022-08-03T16:10:31.666Z,1.97
2022-08-03T16:13:01.185Z,2.20
2022-08-03T16:15:27.863Z,2.00
2022-08-03T16:17:54.464Z,1.60
2022-08-03T16:20:31.210Z,2.00
2022-08-03T16:23:08.489Z,1.80
2022-08-03T16:25:42.060Z,2.10
2022-08-03T16:28:13.733Z,2.07
2022-08-03T16:30:42.738Z,1.80
2022-08-03T16:33:09.372Z,2.13
2022-08-03T16:35:36.191Z,1.97
2022-08-03T16:38:09.228Z,2.03
2022-08-03T16:40:36.743Z,2.30
2022-08-03T16:43:18.760Z,1.73
2022-08-03T16:45:48.635Z,2.07
2022-08-03T16:48:15.827Z,2.10
2022-08-03T16:50:42.822Z,1.97
2022-08-03T16:53:16.285Z,2.00
2022-08-03T16:55:53.899Z,1.93
2022-08-03T16:58:24.497Z,1.80
2022-08-03T17:01:20.927Z,2.40
2022-08-03T17:04:01.224Z,1.93
2022-08-03T17:06:34.355Z,1.93
2022-08-03T17:09:02.133Z,2.13
2022-08-03T17:11:29.990Z,2.00
2022-08-03T17:13:59.456Z,2.93
2022-08-03T17:16:25.866Z,1.73
2022-08-03T17:18:56.623Z,1.90
2022-08-03T17:21:29.591Z,1.83
2022-08-03T17:24:19.725Z,1.93
2022-08-03T17:26:49.909Z,2.13
2022-08-03T17:29:23.201Z,2.30
2022-08-03T17:31:52.820Z,2.50
2022-08-03T17:34:20.776Z,2.33
2022-08-03T17:37:17.752Z,2.20
2022-08-03T17:42:31.266Z,2.10
2022-08-03T17:45:02.518Z,2.50
2022-08-03T17:47:41.475Z,2.43
2022-08-03T17:50:25.542Z,3.07
2022-08-03T17:53:06.821Z,2.20
2022-08-03T17:55:57.227Z,2.40
2022-08-03T17:58:34.305Z,2.50
2022-08-03T18:01:59.981Z,2.50
2022-08-03T18:04:11.886Z,2.50
2022-08-03T18:06:55.709Z,2.60
2022-08-03T18:10:04.316Z,2.80
2022-08-03T18:12:22.376Z,2.33
2022-08-03T18:14:57.345Z,2.53
2022-08-03T18:17:55.393Z,2.30
2022-08-03T18:20:33.188Z,2.60
2022-08-03T18:23:04.757Z,2.80
2022-08-03T18:25:44.928Z,2.67
2022-08-03T18:28:18.930Z,2.50
2022-08-03T18:30:53.418Z,2.77
2022-08-03T18:34:19.531Z,3.10
2022-08-03T18:36:17.735Z,2.70
2022-08-03T18:38:51.825Z,2.53
2022-08-03T18:41:32.735Z,2.50
2022-08-03T18:44:09.066Z,3.00
2022-08-03T18:46:53.101Z,2.90
2022-08-03T18:49:19.438Z,2.60
2022-08-03T18:51:47.907Z,2.97
2022-08-03T18:54:51.733Z,3.13
2022-08-03T18:57:19.818Z,2.73
2022-08-03T19:00:06.454Z,3.73
2022-08-03T19:02:49.321Z,2.90
2022-08-03T19:05:23.548Z,2.90
2022-08-03T19:08:19.716Z,2.57
2022-08-03T19:10:57.714Z,2.90
2022-08-03T19:13:36.134Z,3.20
2022-08-03T19:16:04.053Z,2.57
2022-08-03T19:18:37.462Z,2.77
2022-08-03T19:21:15.513Z,2.70
2022-08-03T19:23:47.848Z,18.60
2022-08-03T19:26:30.514Z,12.27
2022-08-03T19:28:58.716Z,14.83
2022-08-03T19:31:30.709Z,8.37
2022-08-03T19:34:00.258Z,7.97
2022-08-03T19:36:28.527Z,22.43
2022-08-03T19:38:58.817Z,20.10
2022-08-03T19:44:25.871Z,9.67
2022-08-03T19:47:00.600Z,4.60
2022-08-03T19:50:01.313Z,3.30
2022-08-03T19:52:24.356Z,2.50
2022-08-03T19:55:00.327Z,2.30
2022-08-03T19:57:28.840Z,2.50
2022-08-03T19:59:57.030Z,3.23
2022-08-03T20:02:26.064Z,3.10
2022-08-03T20:04:56.904Z,3.00
2022-08-03T20:07:25.119Z,3.10
2022-08-03T20:09:54.535Z,3.63
2022-08-03T20:12:26.665Z,3.13
2022-08-03T20:14:56.344Z,3.27
2022-08-03T20:17:22.906Z,2.90
2022-08-03T20:20:09.498Z,3.03
2022-08-03T20:22:37.340Z,2.77
2022-08-03T20:25:11.489Z,3.00
2022-08-03T20:28:07.071Z,3.07
2022-08-03T20:30:33.095Z,3.30
2022-08-03T20:32:59.545Z,3.73
2022-08-03T20:35:26.837Z,2.97
2022-08-03T20:37:54.487Z,3.10
2022-08-03T20:40:22.303Z,4.07
2022-08-03T20:42:55.082Z,4.40
2022-08-03T20:45:59.551Z,3.30
2022-08-03T20:48:09.677Z,3.50
2022-08-03T20:50:38.306Z,4.47
2022-08-03T20:53:06.865Z,4.37
2022-08-03T20:55:47.783Z,3.37
2022-08-03T20:58:20.744Z,3.17
2022-08-03T21:00:51.595Z,3.20
2022-08-03T21:03:18.715Z,3.00
2022-08-03T21:05:51.882Z,2.77
2022-08-03T21:08:22.301Z,3.40
2022-08-03T21:10:50.173Z,3.53
2022-08-03T21:13:08.339Z,10.73
2022-08-03T21:13:39.196Z,4.00
2022-08-03T21:16:14.055Z,3.67
2022-08-03T21:18:49.157Z,3.23
2022-08-03T21:21:17.599Z,3.30
2022-08-03T21:23:49.679Z,3.60
2022-08-03T21:26:18.517Z,3.30
2022-08-03T21:28:46.833Z,3.13
2022-08-03T21:31:14.767Z,4.20
2022-08-03T21:33:52.741Z,4.30
2022-08-03T21:36:19.389Z,3.30
2022-08-03T21:38:55.967Z,2.70
2022-08-03T21:41:23.622Z,3.80
2022-08-03T21:43:49.954Z,4.10
2022-08-03T21:46:18.857Z,4.10
2022-08-03T21:48:48.180Z,3.20
2022-08-03T21:51:17.263Z,3.30
2022-08-03T21:54:03.054Z,3.50
2022-08-03T21:56:54.427Z,3.60
2022-08-03T21:59:23.045Z,3.30
2022-08-03T22:01:55.346Z,3.03
2022-08-03T22:04:45.904Z,3.43
2022-08-03T22:07:13.036Z,2.73
2022-08-03T22:09:39.596Z,3.17
2022-08-03T22:12:16.442Z,2.90
2022-08-03T22:14:43.379Z,3.10
2022-08-03T22:17:10.171Z,3.00
2022-08-03T22:19:37.459Z,3.20
2022-08-03T22:22:08.379Z,3.17
2022-08-03T22:24:36.292Z,4.27
2022-08-03T22:27:22.538Z,3.23
2022-08-03T22:29:51.356Z,3.00
2022-08-03T22:32:17.841Z,4.03
2022-08-03T22:34:46.270Z,3.73
2022-08-03T22:37:16.067Z,3.07
2022-08-03T22:39:43.211Z,3.27
2022-08-03T22:42:10.369Z,3.50
2022-08-03T22:44:37.094Z,3.60
2022-08-03T22:47:04.420Z,4.23
2022-08-03T22:49:32.034Z,3.50
2022-08-03T22:51:58.995Z,3.83
2022-08-03T22:54:25.528Z,3.77
2022-08-03T22:56:52.447Z,3.53
2022-08-03T22:59:41.469Z,3.50
2022-08-03T23:02:20.339Z,3.07
2022-08-03T23:04:56.843Z,3.30
2022-08-03T23:07:38.291Z,3.20
2022-08-03T23:10:08.531Z,2.73
2022-08-03T23:12:36.655Z,3.27
2022-08-03T23:15:07.608Z,3.10
2022-08-03T23:17:58.041Z,3.47
2022-08-03T23:20:26.628Z,3.67
2022-08-03T23:22:54.353Z,3.33
2022-08-03T23:25:21.856Z,3.90
2022-08-03T23:28:05.230Z,3.30
2022-08-03T23:30:34.694Z,3.40
2022-08-03T23:33:02.766Z,3.40
2022-08-03T23:36:29.492Z,3.73
2022-08-03T23:38:35.788Z,3.33
2022-08-03T23:41:03.814Z,3.30
2022-08-03T23:43:45.009Z,3.60
2022-08-03T23:46:20.008Z,3.77
2022-08-03T23:48:46.329Z,4.70
2022-08-03T23:51:38.822Z,4.83
2022-08-03T23:54:20.935Z,4.83
2022-08-03T23:57:31.530Z,4.90
